createdAt,value
2022-11-15T00:00:54.139Z,16.38
2022-11-15T00:06:14.663Z,15.45
2022-11-15T00:11:34.763Z,15.02
2022-11-15T00:16:55.049Z,15.68
2022-11-15T00:22:15.399Z,14.38
2022-11-15T00:27:36.026Z,13.18
2022-11-15T00:32:56.610Z,13.95
2022-11-15T00:38:16.528Z,14.48
2022-11-15T00:43:37.427Z,13.18
2022-11-15T00:48:57.723Z,13.07
2022-11-15T00:54:18.051Z,13.27
2022-11-15T00:59:38.321Z,13.43
2022-11-15T01:04:58.617Z,12.98
2022-11-15T01:10:19.529Z,13.40
2022-11-15T01:15:41.603Z,12.93
2022-11-15T01:21:06.290Z,12.88
2022-11-15T01:26:26.654Z,12.68
2022-11-15T01:31:47.005Z,12.40
2022-11-15T01:37:07.284Z,12.57
2022-11-15T01:42:27.757Z,11.60
2022-11-15T01:47:53.797Z,13.13
2022-11-15T01:53:14.860Z,12.13
2022-11-15T01:58:36.357Z,14.52
2022-11-15T02:04:01.675Z,14.80
2022-11-15T02:09:21.868Z,14.35
2022-11-15T02:14:45.952Z,15.13
2022-11-15T02:20:31.300Z,14.63
2022-11-15T02:26:27.168Z,13.63
2022-11-15T02:32:05.778Z,14.83
2022-11-15T02:37:46.650Z,14.07
2022-11-15T02:43:37.871Z,14.17
2022-11-15T02:48:58.362Z,14.03
2022-11-15T02:54:23.713Z,14.25
2022-11-15T03:00:32.273Z,13.95
2022-11-15T03:06:14.435Z,12.90
2022-11-15T03:11:42.262Z,13.48
2022-11-15T03:17:24.564Z,13.47
2022-11-15T03:22:47.886Z,13.00
2022-11-15T03:28:12.127Z,12.97
2022-11-15T03:33:33.127Z,12.47
2022-11-15T03:38:57.729Z,13.93
2022-11-15T03:44:49.785Z,13.13
2022-11-15T03:50:14.509Z,13.03
2022-11-15T03:55:34.947Z,14.47
2022-11-15T04:00:55.577Z,13.93
2022-11-15T04:06:15.705Z,14.10
2022-11-15T04:11:35.975Z,13.33
2022-11-15T04:16:56.253Z,13.57
2022-11-15T04:22:35.150Z,16.20
2022-11-15T04:27:55.183Z,17.43
2022-11-15T04:33:15.858Z,16.27
2022-11-15T04:38:38.038Z,15.40
2022-11-15T04:43:58.430Z,15.63
2022-11-15T04:49:18.852Z,16.03
2022-11-15T04:54:39.033Z,15.93
2022-11-15T04:59:59.320Z,14.70
2022-11-15T05:05:19.855Z,13.70
2022-11-15T05:10:40.117Z,16.57
2022-11-15T05:16:00.579Z,14.10
2022-11-15T05:21:21.233Z,14.80
2022-11-15T05:26:41.242Z,17.30
2022-11-15T05:32:01.477Z,14.70
2022-11-15T05:37:21.875Z,16.03
2022-11-15T05:42:42.106Z,14.93
2022-11-15T05:48:08.623Z,14.77
2022-11-15T05:53:29.485Z,14.48
2022-11-15T05:58:49.690Z,14.03
2022-11-15T06:04:10.085Z,14.80
2022-11-15T06:09:30.378Z,16.10
2022-11-15T06:14:50.693Z,14.07
2022-11-15T06:20:11.454Z,15.27
2022-11-15T06:25:32.723Z,14.93
2022-11-15T06:30:53.380Z,16.80
2022-11-15T06:36:18.243Z,17.83
2022-11-15T06:41:38.603Z,17.70
2022-11-15T06:46:58.822Z,21.10
2022-11-15T06:52:20.545Z,21.43
2022-11-15T06:57:51.450Z,22.57
2022-11-15T07:03:11.783Z,21.17
2022-11-15T07:08:32.551Z,25.77
2022-11-15T07:13:52.504Z,25.43
2022-11-15T07:19:12.798Z,27.47
2022-11-15T07:24:33.039Z,31.60
2022-11-15T07:29:53.439Z,34.25
2022-11-15T07:35:13.640Z,34.47
2022-11-15T07:40:34.058Z,35.10
2022-11-15T07:45:58.791Z,34.17
2022-11-15T07:51:21.071Z,31.13
2022-11-15T07:56:41.980Z,31.00
2022-11-15T08:02:02.988Z,34.88
2022-11-15T08:07:23.377Z,30.23
2022-11-15T08:12:43.537Z,27.45
2022-11-15T08:18:10.656Z,38.90
2022-11-15T08:23:31.569Z,38.75
2022-11-15T08:28:52.233Z,36.70
2022-11-15T08:34:12.233Z,36.60
2022-11-15T08:39:32.569Z,35.00
2022-11-15T08:44:52.833Z,30.80
2022-11-15T08:50:13.185Z,27.88
2022-11-15T08:55:36.682Z,23.00
2022-11-15T09:00:56.988Z,17.80
2022-11-15T09:06:17.403Z,17.75
2022-11-15T09:11:38.479Z,15.32
2022-11-15T09:16:59.297Z,12.30
2022-11-15T09:22:19.738Z,10.82
2022-11-15T09:27:39.993Z,11.30
2022-11-15T09:33:06.753Z,10.25
2022-11-15T09:38:27.710Z,10.70
2022-11-15T09:44:25.985Z,10.43
2022-11-15T09:49:51.639Z,10.82
2022-11-15T09:55:02.530Z,9.93
2022-11-15T10:05:48.122Z,9.98
2022-11-15T10:11:22.768Z,7.95
2022-11-15T10:16:45.383Z,9.25
2022-11-15T10:22:17.730Z,7.68
2022-11-15T10:27:20.837Z,7.70
2022-11-15T10:32:22.866Z,7.63
2022-11-15T10:37:32.858Z,7.35
2022-11-15T10:42:34.636Z,7.80
2022-11-15T10:47:39.672Z,8.85
2022-11-15T10:52:47.766Z,10.15
2022-11-15T10:57:53.779Z,11.73
2022-11-15T11:03:04.817Z,12.13
2022-11-15T11:08:15.572Z,11.68
2022-11-15T11:13:25.567Z,12.10
2022-11-15T11:18:38.930Z,11.43
2022-11-15T11:24:06.755Z,11.98
2022-11-15T11:29:34.747Z,11.23
2022-11-15T11:35:11.592Z,11.00
2022-11-15T11:40:38.089Z,11.35
2022-11-15T11:45:57.261Z,11.52
2022-11-15T11:51:08.895Z,12.48
2022-11-15T11:56:26.076Z,12.10
2022-11-15T12:01:40.583Z,12.38
2022-11-15T12:06:46.824Z,12.13
2022-11-15T12:12:13.587Z,11.35
2022-11-15T12:17:18.683Z,11.95
2022-11-15T12:22:42.925Z,11.45
2022-11-15T12:28:03.310Z,11.20
2022-11-15T12:33:05.086Z,11.60
2022-11-15T12:38:10.790Z,12.10
2022-11-15T12:43:15.436Z,11.55
2022-11-15T12:48:17.012Z,11.70
2022-11-15T12:53:28.371Z,12.20
2022-11-15T12:58:48.630Z,12.40
2022-11-15T13:04:09.052Z,12.38
2022-11-15T13:09:38.663Z,12.88
2022-11-15T13:14:55.078Z,12.85
2022-11-15T13:19:59.868Z,13.93
2022-11-15T13:25:05.468Z,12.63
2022-11-15T13:30:16.866Z,12.90
2022-11-15T13:35:24.326Z,12.27
2022-11-15T13:40:35.141Z,12.13
2022-11-15T13:45:36.805Z,11.13
2022-11-15T13:50:39.863Z,11.38
2022-11-15T13:55:42.687Z,10.45
2022-11-15T14:00:46.551Z,10.02
2022-11-15T14:06:16.939Z,10.90
2022-11-15T14:11:20.845Z,9.90
2022-11-15T14:16:33.242Z,10.52
2022-11-15T14:21:34.993Z,10.40
2022-11-15T14:26:36.930Z,9.75
2022-11-15T14:31:43.929Z,10.63
2022-11-15T14:36:45.797Z,12.27
2022-11-15T14:41:47.443Z,13.52
2022-11-15T14:46:49.486Z,12.23
2022-11-15T14:51:51.090Z,16.67
2022-11-15T14:56:52.691Z,11.82
2022-11-15T15:01:54.336Z,8.93
2022-11-15T15:06:56.134Z,8.55
2022-11-15T15:11:59.795Z,6.97
2022-11-15T15:17:05.805Z,5.80
2022-11-15T15:22:14.827Z,6.90
2022-11-15T15:27:16.487Z,6.32
2022-11-15T15:32:18.166Z,6.53
2022-11-15T15:37:27.087Z,5.65
2022-11-15T15:42:28.701Z,6.75
2022-11-15T15:47:30.341Z,7.47
2022-11-15T15:52:31.950Z,8.32
2022-11-15T15:57:33.585Z,7.43
2022-11-15T16:02:40.276Z,7.40
2022-11-15T16:07:44.262Z,9.02
2022-11-15T16:12:46.522Z,9.77
2022-11-15T16:17:52.150Z,8.63
2022-11-15T16:22:53.760Z,9.45
2022-11-15T16:27:55.347Z,9.60
2022-11-15T16:32:56.995Z,9.68
2022-11-15T16:37:58.667Z,12.45
2022-11-15T16:43:02.966Z,13.15
2022-11-15T16:48:04.933Z,12.65
2022-11-15T16:53:07.344Z,11.38
2022-11-15T16:58:10.552Z,10.50
2022-11-15T17:03:12.188Z,9.15
2022-11-15T17:08:13.889Z,9.85
2022-11-15T17:13:15.492Z,10.05
2022-11-15T17:18:17.219Z,10.77
2022-11-15T17:23:18.906Z,11.15
2022-11-15T17:28:20.582Z,12.13
2022-11-15T17:33:22.273Z,17.30
2022-11-15T17:38:24.371Z,25.25
2022-11-15T17:43:25.998Z,19.65
2022-11-15T17:48:27.662Z,23.20
2022-11-15T17:53:40.339Z,24.55
2022-11-15T17:58:42.570Z,24.58
2022-11-15T18:03:44.822Z,23.20
2022-11-15T18:08:47.884Z,24.58
2022-11-15T18:13:59.069Z,26.05
2022-11-15T18:19:01.139Z,24.90
2022-11-15T18:24:03.158Z,29.95
2022-11-15T18:29:05.271Z,31.90
2022-11-15T18:34:06.989Z,30.95
2022-11-15T18:39:16.112Z,28.85
2022-11-15T18:44:43.354Z,29.48
2022-11-15T18:49:45.037Z,29.33
2022-11-15T18:54:46.626Z,28.30
2022-11-15T18:59:48.257Z,32.08
2022-11-15T19:04:49.925Z,34.60
2022-11-15T19:09:51.574Z,32.80
2022-11-15T19:14:53.242Z,35.45
2022-11-15T19:19:54.843Z,35.30
2022-11-15T19:24:56.444Z,44.00
2022-11-15T19:29:58.081Z,43.47
2022-11-15T19:34:59.821Z,46.70
2022-11-15T19:40:01.503Z,43.80
2022-11-15T19:45:03.356Z,42.03
2022-11-15T19:50:05.323Z,41.78
2022-11-15T19:55:07.532Z,41.70
2022-11-15T20:00:09.799Z,38.65
2022-11-15T20:05:15.630Z,37.80
2022-11-15T20:10:20.977Z,37.85
2022-11-15T20:15:22.699Z,38.25
2022-11-15T20:20:24.322Z,37.42
2022-11-15T20:25:25.960Z,35.78
2022-11-15T20:30:27.553Z,36.38
2022-11-15T20:35:29.538Z,36.35
2022-11-15T20:40:31.592Z,35.45
2022-11-15T20:45:33.233Z,35.03
2022-11-15T20:50:42.601Z,35.53
2022-11-15T20:55:49.449Z,33.65
2022-11-15T21:00:55.618Z,32.88
2022-11-15T21:05:57.596Z,30.85
2022-11-15T21:11:17.562Z,31.67
2022-11-15T21:16:19.163Z,31.63
2022-11-15T21:21:20.883Z,33.03
2022-11-15T21:26:22.662Z,32.03
2022-11-15T21:31:24.297Z,30.92
2022-11-15T21:36:25.930Z,31.52
2022-11-15T21:41:27.899Z,31.27
2022-11-15T21:46:30.752Z,31.30
2022-11-15T21:51:32.580Z,30.70
2022-11-15T21:56:35.398Z,32.30
2022-11-15T22:01:55.564Z,33.15
2022-11-15T22:06:57.273Z,30.15
2022-11-15T22:11:59.031Z,31.08
2022-11-15T22:17:00.662Z,29.05
2022-11-15T22:22:02.324Z,30.63
2022-11-15T22:27:04.641Z,30.67
2022-11-15T22:32:06.356Z,29.35
2022-11-15T22:37:23.325Z,29.05
2022-11-15T22:42:25.140Z,28.73
2022-11-15T22:47:26.937Z,28.65
2022-11-15T22:52:28.731Z,29.48
2022-11-15T22:57:30.478Z,28.30
2022-11-15T23:02:32.163Z,26.92
2022-11-15T23:07:34.355Z,27.67
2022-11-15T23:12:54.543Z,26.25
2022-11-15T23:17:56.253Z,27.20
2022-11-15T23:22:59.413Z,26.77
2022-11-15T23:28:05.194Z,24.77
2022-11-15T23:33:25.376Z,24.13
2022-11-15T23:38:27.088Z,21.58
2022-11-15T23:43:28.965Z,21.08
2022-11-15T23:48:31.077Z,22.40
2022-11-15T23:53:33.235Z,23.03
2022-11-15T23:58:35.540Z,22.20
